createdAt,value
2019-05-20T00:02:02.684Z,16.10
2019-05-20T00:04:33.814Z,16.10
2019-05-20T00:07:04.666Z,16.10
2019-05-20T00:09:35.079Z,16.00
2019-05-20T00:12:05.821Z,16.00
2019-05-20T00:14:36.235Z,16.00
2019-05-20T00:17:06.665Z,16.00
2019-05-20T00:19:37.003Z,16.00
2019-05-20T00:22:07.417Z,15.90
2019-05-20T00:24:38.371Z,15.90
2019-05-20T00:27:08.708Z,15.90
2019-05-20T00:29:39.127Z,15.90
2019-05-20T00:32:09.495Z,15.80
2019-05-20T00:34:40.346Z,15.80
2019-05-20T00:37:10.781Z,15.80
2019-05-20T00:40:00.611Z,15.80
2019-05-20T00:42:30.983Z,15.80
2019-05-20T00:45:01.436Z,15.80
2019-05-20T00:47:31.870Z,15.80
2019-05-20T00:50:03.123Z,15.80
2019-05-20T00:52:34.382Z,15.80
2019-05-20T00:55:07.215Z,15.80
2019-05-20T00:57:37.842Z,15.80
2019-05-20T01:00:08.532Z,15.70
2019-05-20T01:02:38.864Z,15.70
2019-05-20T01:05:09.618Z,15.60
2019-05-20T01:07:40.007Z,15.60
2019-05-20T01:10:10.355Z,15.50
2019-05-20T01:12:40.990Z,15.50
2019-05-20T01:15:11.412Z,15.50
2019-05-20T01:17:41.854Z,15.40
2019-05-20T01:20:12.744Z,15.40
2019-05-20T01:22:43.093Z,15.40
2019-05-20T01:25:14.275Z,15.40
2019-05-20T01:27:45.319Z,15.40
2019-05-20T01:30:16.121Z,15.40
2019-05-20T01:32:46.817Z,15.40
2019-05-20T01:35:17.386Z,15.40
2019-05-20T01:37:47.798Z,15.40
2019-05-20T01:40:18.200Z,15.40
2019-05-20T01:42:48.563Z,15.40
2019-05-20T01:45:18.947Z,15.40
2019-05-20T01:47:49.368Z,15.40
2019-05-20T01:50:19.803Z,15.40
2019-05-20T01:52:50.178Z,15.40
2019-05-20T01:55:20.590Z,15.40
2019-05-20T01:57:51.460Z,15.40
2019-05-20T02:00:22.439Z,15.40
2019-05-20T02:02:53.598Z,15.40
2019-05-20T02:05:24.339Z,15.40
2019-05-20T02:07:55.088Z,15.40
2019-05-20T02:10:25.475Z,15.40
2019-05-20T02:12:56.188Z,15.40
2019-05-20T02:15:28.217Z,15.40
2019-05-20T02:17:58.605Z,15.30
2019-05-20T02:20:29.290Z,15.20
2019-05-20T02:23:15.339Z,15.20
2019-05-20T02:25:49.554Z,15.10
2019-05-20T02:28:19.895Z,15.10
2019-05-20T02:30:50.295Z,15.00
2019-05-20T02:33:20.814Z,14.90
2019-05-20T02:35:51.177Z,15.00
2019-05-20T02:38:21.539Z,14.90
2019-05-20T02:40:52.295Z,14.90
2019-05-20T02:43:22.691Z,14.90
2019-05-20T02:45:53.036Z,14.90
2019-05-20T02:48:24.143Z,14.90
2019-05-20T02:50:54.510Z,14.90
2019-05-20T02:53:25.194Z,14.90
2019-05-20T02:55:56.092Z,14.90
2019-05-20T02:58:26.906Z,14.80
2019-05-20T03:00:57.253Z,14.80
2019-05-20T03:03:27.925Z,14.80
2019-05-20T03:05:58.362Z,14.70
2019-05-20T03:08:28.703Z,14.80
2019-05-20T03:10:59.416Z,14.80
2019-05-20T03:13:30.169Z,14.70
2019-05-20T03:16:00.564Z,14.70
2019-05-20T03:18:31.021Z,14.70
2019-05-20T03:21:01.423Z,14.80
2019-05-20T03:23:31.791Z,14.80
2019-05-20T03:26:02.597Z,14.80
2019-05-20T03:28:52.789Z,14.80
2019-05-20T03:31:23.150Z,14.80
2019-05-20T03:33:53.587Z,14.70
2019-05-20T03:36:24.476Z,14.70
2019-05-20T03:38:54.929Z,14.80
2019-05-20T03:41:25.656Z,14.80
2019-05-20T03:43:56.005Z,14.80
2019-05-20T03:46:26.375Z,14.80
2019-05-20T03:48:56.816Z,14.90
2019-05-20T03:51:27.208Z,14.90
2019-05-20T03:53:57.624Z,15.00
2019-05-20T03:56:27.980Z,15.00
2019-05-20T03:58:58.354Z,15.00
2019-05-20T04:01:28.761Z,15.00
2019-05-20T04:03:59.186Z,15.00
2019-05-20T04:06:29.552Z,15.10
2019-05-20T04:09:00.341Z,15.20
2019-05-20T04:11:30.768Z,15.20
2019-05-20T04:14:01.200Z,15.30
2019-05-20T04:16:32.240Z,15.30
2019-05-20T04:19:03.019Z,15.40
2019-05-20T04:21:33.696Z,15.50
2019-05-20T04:24:04.967Z,15.50
2019-05-20T04:26:35.474Z,15.60
2019-05-20T04:29:05.817Z,15.60
2019-05-20T04:31:36.195Z,15.60
2019-05-20T04:34:06.963Z,15.70
2019-05-20T04:36:37.506Z,15.70
2019-05-20T04:39:07.879Z,15.70
2019-05-20T04:41:38.636Z,15.60
2019-05-20T04:44:09.004Z,15.60
2019-05-20T04:46:39.382Z,15.70
2019-05-20T04:49:09.759Z,15.70
2019-05-20T04:51:40.103Z,15.80
2019-05-20T04:54:10.521Z,15.80
2019-05-20T04:56:40.908Z,15.80
2019-05-20T04:59:11.302Z,15.80
2019-05-20T05:01:41.687Z,15.90
2019-05-20T05:04:12.100Z,15.90
2019-05-20T05:06:42.491Z,15.90
2019-05-20T05:09:15.616Z,16.00
2019-05-20T05:11:45.210Z,16.10
2019-05-20T05:14:16.057Z,16.20
2019-05-20T05:16:46.419Z,16.40
2019-05-20T05:19:36.386Z,16.50
2019-05-20T05:22:06.754Z,16.60
2019-05-20T05:24:37.525Z,16.60
2019-05-20T05:27:08.250Z,16.70
2019-05-20T05:29:38.990Z,16.70
2019-05-20T05:32:09.732Z,16.70
2019-05-20T05:34:40.470Z,16.70
2019-05-20T05:37:10.822Z,16.60
2019-05-20T05:39:41.180Z,16.50
2019-05-20T05:42:11.954Z,16.60
2019-05-20T05:44:42.318Z,16.70
2019-05-20T05:47:13.116Z,16.70
2019-05-20T05:49:43.481Z,16.80
2019-05-20T05:52:14.191Z,16.90
2019-05-20T05:54:44.633Z,16.90
2019-05-20T05:57:14.967Z,17.00
2019-05-20T05:59:45.671Z,17.10
2019-05-20T06:02:16.314Z,17.10
2019-05-20T06:04:46.704Z,17.10
2019-05-20T06:07:17.096Z,17.20
2019-05-20T06:09:47.861Z,17.40
2019-05-20T06:12:18.251Z,17.60
2019-05-20T06:14:48.617Z,17.70
2019-05-20T06:17:18.963Z,17.70
2019-05-20T06:19:49.834Z,17.70
2019-05-20T06:22:20.186Z,17.90
2019-05-20T06:24:50.871Z,17.90
2019-05-20T06:27:22.246Z,17.60
2019-05-20T06:29:52.780Z,17.80
2019-05-20T06:32:23.460Z,17.90
2019-05-20T06:34:54.061Z,18.00
2019-05-20T06:37:26.149Z,18.00
2019-05-20T06:39:56.885Z,18.00
2019-05-20T06:42:27.260Z,18.10
2019-05-20T06:44:58.027Z,18.10
2019-05-20T06:47:28.445Z,18.20
2019-05-20T06:49:58.837Z,18.20
2019-05-20T06:52:35.950Z,18.10
2019-05-20T06:55:02.006Z,18.10
2019-05-20T06:57:32.709Z,18.20
2019-05-20T07:00:06.007Z,18.40
2019-05-20T07:02:36.818Z,18.60
2019-05-20T07:05:28.593Z,18.70
2019-05-20T07:08:01.290Z,18.80
2019-05-20T07:10:32.082Z,19.00
2019-05-20T07:13:02.980Z,19.20
2019-05-20T07:15:33.747Z,19.30
2019-05-20T07:18:04.099Z,19.40
2019-05-20T07:20:34.859Z,19.50
2019-05-20T07:23:05.268Z,19.50
2019-05-20T07:25:35.640Z,19.60
2019-05-20T07:28:06.004Z,19.60
2019-05-20T07:30:36.418Z,19.70
2019-05-20T07:33:06.794Z,19.90
2019-05-20T07:35:57.692Z,20.00
2019-05-20T07:38:28.085Z,20.00
2019-05-20T07:40:58.447Z,20.00
2019-05-20T07:43:28.817Z,20.20
2019-05-20T07:45:59.522Z,20.30
2019-05-20T07:48:30.083Z,20.40
2019-05-20T07:51:00.722Z,20.60
2019-05-20T07:53:31.110Z,20.70
2019-05-20T07:56:15.523Z,20.90
2019-05-20T07:58:50.177Z,21.00
2019-05-20T08:01:20.545Z,21.20
2019-05-20T08:03:51.265Z,21.30
2019-05-20T08:06:21.683Z,21.50
2019-05-20T08:08:52.301Z,21.60
2019-05-20T08:11:22.715Z,21.60
2019-05-20T08:13:53.437Z,21.50
2019-05-20T08:16:24.200Z,21.60
2019-05-20T08:18:54.544Z,21.70
2019-05-20T08:21:25.561Z,21.90
2019-05-20T08:23:56.327Z,22.00
2019-05-20T08:26:26.758Z,22.10
2019-05-20T08:28:57.157Z,22.30
2019-05-20T08:31:27.489Z,22.40
2019-05-20T08:33:57.977Z,22.30
2019-05-20T08:36:28.709Z,22.40
2019-05-20T08:38:59.721Z,22.50
2019-05-20T08:41:30.204Z,22.40
2019-05-20T08:44:00.589Z,22.30
2019-05-20T08:46:30.973Z,22.40
2019-05-20T08:49:01.354Z,22.40
2019-05-20T08:51:31.952Z,22.60
2019-05-20T08:54:02.286Z,22.60
2019-05-20T08:56:32.704Z,22.50
2019-05-20T08:59:03.053Z,22.50
2019-05-20T09:01:33.457Z,22.60
2019-05-20T09:04:04.360Z,22.70
2019-05-20T09:06:34.730Z,22.90
2019-05-20T09:09:07.423Z,22.80
2019-05-20T09:11:38.040Z,22.80
2019-05-20T09:14:08.448Z,22.90
2019-05-20T09:16:39.482Z,23.10
2019-05-20T09:19:09.973Z,23.10
2019-05-20T09:21:40.360Z,23.20
2019-05-20T09:24:10.699Z,23.10
2019-05-20T09:26:41.052Z,23.00
2019-05-20T09:29:11.739Z,22.90
2019-05-20T09:31:42.875Z,22.50
2019-05-20T09:34:13.508Z,22.60
2019-05-20T09:36:45.111Z,22.80
2019-05-20T09:39:15.911Z,23.00
2019-05-20T09:41:46.953Z,23.20
2019-05-20T09:44:17.340Z,23.50
2019-05-20T09:46:47.798Z,23.70
2019-05-20T09:49:18.322Z,23.70
2019-05-20T09:51:48.677Z,23.60
2019-05-20T09:54:19.067Z,23.70
2019-05-20T09:56:49.408Z,23.70
2019-05-20T09:59:19.828Z,23.70
2019-05-20T10:01:50.539Z,23.70
2019-05-20T10:04:20.851Z,23.50
2019-05-20T10:06:51.309Z,23.50
2019-05-20T10:09:22.005Z,23.80
2019-05-20T10:11:52.458Z,24.30
2019-05-20T10:14:23.060Z,24.40
2019-05-20T10:16:53.446Z,24.60
2019-05-20T10:19:24.082Z,24.70
2019-05-20T10:21:54.497Z,24.60
2019-05-20T10:24:24.869Z,24.60
2019-05-20T10:26:55.939Z,24.50
2019-05-20T10:29:27.156Z,24.60
2019-05-20T10:31:57.549Z,24.70
2019-05-20T10:34:27.913Z,24.70
2019-05-20T10:36:59.063Z,24.80
2019-05-20T10:39:29.765Z,25.00
2019-05-20T10:42:00.098Z,24.90
2019-05-20T10:44:30.779Z,24.90
2019-05-20T10:47:01.460Z,24.70
2019-05-20T10:49:31.797Z,24.80
2019-05-20T10:52:02.187Z,24.90
2019-05-20T10:54:33.450Z,24.90
2019-05-20T10:57:03.876Z,25.00
2019-05-20T10:59:34.290Z,25.10
2019-05-20T11:02:05.357Z,25.10
2019-05-20T11:04:35.770Z,25.00
2019-05-20T11:07:06.118Z,25.00
2019-05-20T11:09:36.446Z,25.00
2019-05-20T11:12:06.855Z,25.00
2019-05-20T11:14:37.764Z,25.00
2019-05-20T11:17:08.157Z,25.00
2019-05-20T11:19:38.475Z,24.80
2019-05-20T11:22:09.156Z,24.80
2019-05-20T11:24:39.525Z,24.80
2019-05-20T11:27:09.873Z,24.70
2019-05-20T11:29:40.664Z,24.70
2019-05-20T11:32:11.110Z,24.70
2019-05-20T11:34:41.854Z,24.80
2019-05-20T11:37:12.246Z,24.90
2019-05-20T11:39:42.621Z,25.20
2019-05-20T11:42:13.051Z,25.20
2019-05-20T11:44:43.445Z,25.10
2019-05-20T11:47:13.801Z,25.10
2019-05-20T11:49:44.148Z,25.20
2019-05-20T11:52:14.528Z,25.20
2019-05-20T11:54:45.257Z,25.20
2019-05-20T11:57:15.609Z,25.40
2019-05-20T11:59:45.934Z,25.50
2019-05-20T12:02:16.356Z,25.60
2019-05-20T12:04:46.761Z,25.40
2019-05-20T12:07:17.210Z,25.30
2019-05-20T12:09:49.936Z,25.20
2019-05-20T12:12:19.613Z,25.10
2019-05-20T12:14:52.769Z,24.70
2019-05-20T12:17:23.497Z,24.50
2019-05-20T12:19:54.297Z,24.40
2019-05-20T12:22:24.922Z,24.30
2019-05-20T12:24:55.329Z,24.10
2019-05-20T12:27:26.010Z,24.10
2019-05-20T12:29:56.373Z,24.40
2019-05-20T12:32:26.939Z,24.50
2019-05-20T12:34:57.258Z,24.70
2019-05-20T12:37:27.586Z,24.80
2019-05-20T12:40:07.182Z,24.70
2019-05-20T12:42:30.100Z,24.50
2019-05-20T12:45:00.460Z,24.50
2019-05-20T12:47:31.178Z,24.70
2019-05-20T12:50:01.517Z,24.60
2019-05-20T12:52:31.882Z,24.70
2019-05-20T12:55:07.752Z,24.80
2019-05-20T12:57:34.801Z,24.70
2019-05-20T13:00:12.003Z,24.60
2019-05-20T13:02:45.475Z,24.50
2019-05-20T13:05:16.213Z,24.40
2019-05-20T13:07:46.871Z,24.30
2019-05-20T13:10:28.817Z,24.30
2019-05-20T13:12:49.271Z,24.20
2019-05-20T13:15:19.841Z,24.10
2019-05-20T13:17:50.290Z,24.00
2019-05-20T13:20:20.687Z,24.00
2019-05-20T13:22:51.154Z,23.90
2019-05-20T13:25:22.191Z,23.90
2019-05-20T13:27:56.302Z,23.90
2019-05-20T13:30:26.816Z,23.90
2019-05-20T13:32:57.878Z,23.80
2019-05-20T13:35:28.285Z,23.60
2019-05-20T13:37:58.641Z,23.50
2019-05-20T13:40:45.101Z,23.40
2019-05-20T13:43:01.126Z,23.30
2019-05-20T13:45:31.809Z,23.10
2019-05-20T13:48:02.763Z,23.00
2019-05-20T13:50:33.389Z,22.90
2019-05-20T13:53:04.107Z,22.90
2019-05-20T13:55:34.711Z,22.80
2019-05-20T13:58:05.084Z,22.80
2019-05-20T14:00:35.454Z,22.80
2019-05-20T14:03:05.791Z,22.70
2019-05-20T14:05:37.043Z,22.60
2019-05-20T14:08:07.450Z,22.60
2019-05-20T14:10:37.850Z,22.50
2019-05-20T14:13:08.529Z,22.40
2019-05-20T14:15:38.888Z,22.40
2019-05-20T14:18:09.265Z,22.30
2019-05-20T14:20:39.699Z,22.20
2019-05-20T14:23:10.149Z,22.10
2019-05-20T14:25:40.550Z,22.10
2019-05-20T14:28:10.936Z,22.00
2019-05-20T14:30:41.305Z,22.00
2019-05-20T14:33:11.714Z,22.00
2019-05-20T14:35:42.402Z,21.90
2019-05-20T14:38:12.899Z,21.80
2019-05-20T14:40:44.179Z,21.60
2019-05-20T14:43:14.575Z,21.50
2019-05-20T14:45:45.409Z,21.40
2019-05-20T14:48:16.001Z,21.30
2019-05-20T14:50:46.446Z,21.30
2019-05-20T14:53:16.833Z,21.20
2019-05-20T14:55:47.204Z,21.20
2019-05-20T14:58:17.578Z,21.10
2019-05-20T15:00:47.965Z,20.90
2019-05-20T15:20:55.233Z,19.50
2019-05-20T15:23:25.992Z,19.30
2019-05-20T15:27:03.870Z,19.10
2019-05-20T15:30:07.455Z,18.50
2019-05-20T15:32:37.805Z,17.80
2019-05-20T15:35:08.359Z,17.60
2019-05-20T15:37:39.092Z,17.60
2019-05-20T15:40:09.470Z,17.60
2019-05-20T15:42:39.798Z,17.50
2019-05-20T15:45:10.463Z,17.40
2019-05-20T15:47:41.535Z,17.40
2019-05-20T15:50:12.273Z,17.20
2019-05-20T15:52:43.102Z,17.20
2019-05-20T15:55:14.151Z,17.10
2019-05-20T15:57:44.926Z,17.10
2019-05-20T16:00:16.478Z,17.10
2019-05-20T16:02:46.822Z,17.20
2019-05-20T16:05:17.232Z,17.20
2019-05-20T16:07:47.636Z,17.20
2019-05-20T16:10:18.266Z,17.20
2019-05-20T16:12:48.619Z,17.20
2019-05-20T16:15:19.193Z,17.40
2019-05-20T16:17:49.632Z,17.60
2019-05-20T16:20:20.382Z,17.70
2019-05-20T16:22:51.170Z,18.00
2019-05-20T16:25:21.499Z,18.20
2019-05-20T16:27:52.225Z,18.30
2019-05-20T16:30:22.917Z,18.40
2019-05-20T16:32:53.326Z,18.60
2019-05-20T16:35:23.687Z,18.90
2019-05-20T16:37:54.924Z,18.90
2019-05-20T16:40:25.546Z,18.80
2019-05-20T16:42:56.176Z,18.90
2019-05-20T16:45:26.934Z,19.00
2019-05-20T16:47:57.286Z,19.10
2019-05-20T16:50:28.295Z,19.10
2019-05-20T16:52:58.937Z,19.00
2019-05-20T16:55:29.837Z,19.00
2019-05-20T16:58:00.241Z,18.90
2019-05-20T17:00:32.294Z,19.00
2019-05-20T17:03:03.135Z,19.10
2019-05-20T17:05:33.943Z,19.20
2019-05-20T17:08:04.310Z,19.10
2019-05-20T17:10:34.707Z,19.00
2019-05-20T17:13:05.448Z,18.70
2019-05-20T17:15:36.082Z,18.70
2019-05-20T17:18:06.484Z,18.70
2019-05-20T17:20:37.017Z,18.70
2019-05-20T17:23:07.761Z,18.70
2019-05-20T17:25:38.431Z,18.70
2019-05-20T17:28:09.135Z,18.70
2019-05-20T17:30:45.597Z,18.70
2019-05-20T17:33:12.192Z,18.70
2019-05-20T17:35:42.638Z,18.70
2019-05-20T17:38:13.091Z,18.70
2019-05-20T17:40:43.874Z,18.60
2019-05-20T17:43:14.787Z,18.70
2019-05-20T17:45:45.204Z,18.80
2019-05-20T17:48:15.578Z,18.80
2019-05-20T17:50:46.011Z,18.80
2019-05-20T17:53:16.379Z,18.70
2019-05-20T17:55:46.804Z,18.70
2019-05-20T17:58:17.174Z,18.70
2019-05-20T18:00:47.845Z,18.60
2019-05-20T18:03:18.483Z,18.50
2019-05-20T18:05:48.873Z,18.30
2019-05-20T18:08:19.419Z,18.30
2019-05-20T18:10:49.840Z,18.20
2019-05-20T18:13:20.174Z,18.20
2019-05-20T18:15:50.571Z,18.10
2019-05-20T18:18:20.979Z,18.10
2019-05-20T18:20:51.380Z,18.10
2019-05-20T18:23:21.717Z,18.10
2019-05-20T18:25:52.867Z,18.10
2019-05-20T18:28:23.380Z,18.10
2019-05-20T18:30:54.092Z,18.10
2019-05-20T18:33:25.168Z,18.10
2019-05-20T18:35:55.805Z,18.20
2019-05-20T18:38:26.188Z,18.20
2019-05-20T18:40:56.627Z,18.20
2019-05-20T18:43:27.320Z,18.20
2019-05-20T18:45:57.708Z,18.20
2019-05-20T18:48:28.077Z,18.20
2019-05-20T18:50:58.473Z,18.20
2019-05-20T18:53:28.808Z,18.20
2019-05-20T18:55:59.467Z,18.20
2019-05-20T18:58:29.974Z,18.20
2019-05-20T19:01:01.037Z,18.20
2019-05-20T19:03:31.871Z,18.20
2019-05-20T19:06:03.162Z,18.10
2019-05-20T19:08:33.518Z,18.20
2019-05-20T19:11:03.876Z,18.10
2019-05-20T19:13:34.582Z,18.10
2019-05-20T19:16:04.962Z,18.00
2019-05-20T19:18:35.320Z,18.00
2019-05-20T19:21:05.701Z,17.90
2019-05-20T19:23:36.042Z,17.90
2019-05-20T19:26:06.855Z,17.80
2019-05-20T19:28:37.280Z,17.70
2019-05-20T19:31:08.200Z,17.60
2019-05-20T19:33:38.687Z,17.40
2019-05-20T19:36:09.313Z,17.50
2019-05-20T19:38:39.704Z,17.40
2019-05-20T19:41:10.257Z,17.40
2019-05-20T19:43:40.595Z,17.30
2019-05-20T19:46:11.063Z,17.30
2019-05-20T19:48:41.400Z,17.20
2019-05-20T19:51:11.787Z,17.10
2019-05-20T19:53:42.497Z,17.10
2019-05-20T19:56:12.843Z,17.00
2019-05-20T19:58:43.214Z,16.90
2019-05-20T20:01:13.546Z,16.80
2019-05-20T20:03:44.004Z,16.80
2019-05-20T20:06:15.024Z,16.70
2019-05-20T20:08:45.717Z,16.70
2019-05-20T20:11:16.052Z,16.70
2019-05-20T20:13:46.694Z,16.70
2019-05-20T20:16:18.065Z,16.60
2019-05-20T20:18:48.784Z,16.70
2019-05-20T20:21:21.626Z,16.60
2019-05-20T20:23:52.324Z,16.70
2019-05-20T20:26:23.050Z,16.70
2019-05-20T20:28:53.449Z,16.70
2019-05-20T20:31:24.467Z,16.60
2019-05-20T20:33:55.165Z,16.70
2019-05-20T20:36:25.858Z,16.60
2019-05-20T20:38:56.310Z,16.60
2019-05-20T20:41:27.050Z,16.60
2019-05-20T20:44:17.262Z,16.60
2019-05-20T20:46:47.616Z,16.50
2019-05-20T20:49:18.099Z,16.40
2019-05-20T20:51:48.472Z,16.30
2019-05-20T20:54:18.910Z,16.30
2019-05-20T20:56:49.274Z,16.30
2019-05-20T20:59:19.660Z,16.10
2019-05-20T21:01:50.042Z,16.00
2019-05-20T21:04:20.534Z,16.00
2019-05-20T21:06:50.907Z,15.90
2019-05-20T21:09:21.246Z,15.90
2019-05-20T21:11:52.972Z,15.80
2019-05-20T21:14:23.726Z,15.80
2019-05-20T21:16:54.497Z,15.80
2019-05-20T21:19:24.879Z,15.70
2019-05-20T21:21:55.874Z,15.70
2019-05-20T21:24:26.240Z,15.70
2019-05-20T21:26:56.883Z,15.70
2019-05-20T21:29:35.105Z,15.60
2019-05-20T21:32:05.628Z,15.60
2019-05-20T21:34:36.144Z,15.60
2019-05-20T21:37:06.530Z,15.60
2019-05-20T21:39:37.262Z,15.60
2019-05-20T21:42:07.939Z,15.50
2019-05-20T21:44:38.285Z,15.50
2019-05-20T21:47:08.999Z,15.50
2019-05-20T21:49:39.792Z,15.50
2019-05-20T21:52:10.131Z,15.40
2019-05-20T21:54:40.515Z,15.40
2019-05-20T21:57:10.894Z,15.30
2019-05-20T21:59:41.259Z,15.30
2019-05-20T22:02:12.026Z,15.30
2019-05-20T22:04:43.020Z,15.30
2019-05-20T22:07:13.732Z,15.30
2019-05-20T22:09:44.505Z,15.30
2019-05-20T22:12:14.912Z,15.30
2019-05-20T22:14:45.265Z,15.20
2019-05-20T22:17:15.641Z,15.20
2019-05-20T22:19:45.984Z,15.10
2019-05-20T22:22:25.032Z,15.10
2019-05-20T22:24:55.738Z,15.10
2019-05-20T22:27:26.402Z,15.00
2019-05-20T22:29:56.957Z,15.00
2019-05-20T22:32:27.791Z,15.00
2019-05-20T22:34:58.133Z,15.00
2019-05-20T22:37:28.642Z,14.90
2019-05-20T22:39:59.253Z,14.90
2019-05-20T22:42:29.591Z,14.90
2019-05-20T22:45:00.259Z,14.80
2019-05-20T22:47:30.648Z,14.80
2019-05-20T22:50:01.053Z,14.80
2019-05-20T22:52:31.751Z,14.80
2019-05-20T22:55:02.441Z,14.70
2019-05-20T22:57:32.815Z,14.70
2019-05-20T23:00:03.483Z,14.70
2019-05-20T23:02:33.854Z,14.70
2019-05-20T23:05:04.807Z,14.70
2019-05-20T23:07:35.259Z,14.70
2019-05-20T23:10:08.097Z,14.70
2019-05-20T23:12:38.461Z,14.70
2019-05-20T23:15:08.847Z,14.60
2019-05-20T23:17:39.229Z,14.60
2019-05-20T23:20:10.330Z,14.60
2019-05-20T23:22:40.753Z,14.60
2019-05-20T23:25:11.408Z,14.60
2019-05-20T23:27:41.788Z,14.60
2019-05-20T23:30:12.978Z,14.50
2019-05-20T23:32:43.539Z,14.50
2019-05-20T23:35:13.907Z,14.50
2019-05-20T23:37:44.251Z,14.50
2019-05-20T23:40:34.439Z,14.50
2019-05-20T23:43:04.822Z,14.50
2019-05-20T23:45:35.540Z,14.50
2019-05-20T23:48:05.904Z,14.50
2019-05-20T23:50:36.676Z,14.40
2019-05-20T23:53:07.047Z,14.40
2019-05-20T23:55:37.387Z,14.30
2019-05-20T23:58:07.841Z,14.30
